Etusivu
METAR-TAF:

METAR-TAF

Lentoasemat :

Fairbanks, Alaska, Yhdysvallat

Leveyspiiri: 64-48-14N, Pituuspiiri: 147-52-34W, korkeus merenpinnasta: 132 m

Tämänhetkinen sää

Tämä raportti tehtiin 1 tunti ja 8 minuuttia sitten, kello 16.53 UTC
tyyntä
Lämpötila -12°C
Kosteus 72%
Ilmanpaine 997 hPa
Näkyvyys: 16.1 km
Hajanaisia pilviä 5000 ft:n korkeudessa
Hajonneita pilviä 13000 ft:n korkeudessa
Pilvistä 19000 ft:n korkeudessa

METAR: PAFA 171653Z 00000KT 10SM SCT050 BKN130 OVC190 M12/M16 A2943 RMK AO2 SLP981 T11221156

Aika: 09:01 (18:01 UTC)

Sääennuste

Tämä raportti tehtiin 33 minuuttia sitten, kello 17.28 UTC
Ennuste voimassa 17. päivästä klo 18 UTC - 18. päivään klo 24 UTC
Tuuli 4 kn eri suunnista
Näkyvyys: 10 km
Hajanaisia pilviä 5000 ft:n korkeudessa
Hajonneita pilviä 13000 ft:n korkeudessa
Pilvistä 19000 ft:n korkeudessa

TAF: PAFA 171728Z 1718/1824 VRB04KT P6SM SCT050 BKN130 OVC190

Säähavainnot ja -ennusteet yli 4000 lentoasemalta (METAR- ja TAF-raportit).

Käytössä olevat sääasemat on merkitty karttaan keltaisilla ja punaisilla pisteillä.

Aseta hiiri pisteen päälle nähdäksesi sääaseman nimen.

Klikkaa sitten nähdäksesi säähavainnot ja -ennusteet.

Kartan vaihtaminen: klikkaa mustalla rastilla varustettuja vihreitä pisteitä, niin voit zoomata sisään; viivalla varustettua vihreää pistettä, niin voit zoomata ulos tai vihreitä nuolia, niin pääset viereisille kartoille.


METAR-TAF: